Latest Weather Observations for Kingaroy

IDQ60801

Issued at 2:02 am EST Wednesday 19 February 2020 (issued every 10 minutes, with the page automatically refreshed every 10 minutes)

About weather observations | Map of weather stations | Latest weather observations for QLD | Other Formats
Station Details ID: 040922 Name: KINGAROY AIRPORT Lat: -26.57 Lon: 151.84 Height: 433.67 m
Data from the previous 72 hours. | See also: Recent months at Kingaroy
Date/Time
EST
Temp
°C
App
Temp
°C
Dew
Point
°C
Rel
Hum
%
Delta-T
°C
Wind Press
QNH
hPa
Press
MSL
hPa
Rain since
9am
mm
Dir  Spd
km/h
Gust
km/h
Spd
kts
Gust
kts
19/02:00am 22.8 25.5 21.4 92 0.9 N 9 13 5 7 1010.0 1007.5 0.0
19/01:30am 22.5 25.0 21.1 92 0.9 N 9 13 5 7 1010.7 1008.2 0.0
19/01:01am 22.9 25.1 21.2 90 1.1 N 11 17 6 9 1011.1 1008.6 0.0
19/01:00am 22.9 25.1 21.2 90 1.1 N 11 17 6 9 1011.2 1008.8 0.0
19/12:30am 23.3 25.1 21.2 88 1.4 NNE 13 17 7 9 1011.1 1008.6 0.0
19/12:00am 23.5 25.9 21.6 89 1.3 NNE 11 17 6 9 1011.2 1008.8 0.0
 
Date/Time
EST
Temp
°C
App
Temp
°C
Dew
Point
°C
Rel
Hum
%
Delta-T
°C
Wind Press
QNH
hPa
Press
MSL
hPa
Rain since
9am
mm
Dir  Spd
km/h
Gust
km/h
Spd
kts
Gust
kts
18/11:52pm 23.6 26.5 21.7 89 1.3 NNE 9 17 5 9 1011.2 1008.8 0.0
18/11:50pm 23.6 26.0 21.5 88 1.4 NNE 11 17 6 9 1011.3 1008.9 0.0
18/11:30pm 23.8 26.2 21.5 87 1.5 N 11 17 6 9 1011.8 1009.3 0.0
18/11:00pm 24.0 26.5 21.7 87 1.5 NNE 11 17 6 9 1012.0 1009.5 0.0
18/10:30pm 24.2 27.2 21.9 87 1.6 NNE 9 17 5 9 1012.3 1009.8 0.0
18/10:20pm 24.2 27.2 21.9 87 1.6 NE 9 17 5 9 1012.1 1009.6 0.0
18/10:00pm 24.3 26.7 21.6 85 1.8 NNE 11 17 6 9 1012.1 1009.6 0.0
18/09:30pm 24.7 27.1 21.6 83 2.1 NNE 11 17 6 9 1011.9 1009.4 0.0
18/09:00pm 25.0 28.0 21.3 80 2.5 ENE 7 15 4 8 1011.5 1009.0 0.0
18/08:30pm 25.5 28.0 21.0 76 3.0 NE 9 19 5 10 1011.1 1008.6 0.0
18/08:00pm 25.9 28.4 19.8 69 4.0 ENE 6 13 3 7 1011.0 1008.5 0.0
18/07:30pm 26.5 28.8 18.6 62 5.1 ENE 4 11 2 6 1010.9 1008.4 0.0
18/07:00pm 27.1 30.2 18.7 60 5.5 CALM 0 2 0 1 1010.4 1007.9 0.0
18/06:30pm 28.2 31.0 18.9 57 6.1 ENE 2 7 1 4 1010.1 1007.6 0.0
18/06:00pm 29.8 32.1 18.6 51 7.3 ENE 4 11 2 6 1009.9 1007.4 0.0
18/05:30pm 30.6 31.8 18.3 47 8.0 ENE 9 17 5 9 1009.5 1007.0 0.0
18/05:00pm 31.2 32.5 18.5 46 8.4 E 9 19 5 10 1009.6 1007.1 0.0
18/04:30pm 31.6 34.4 18.9 47 8.4 NE 2 13 1 7 1009.7 1007.2 0.0
18/04:00pm 32.2 34.3 17.3 41 9.7 NE 2 11 1 6 1009.9 1007.4 0.0
18/03:30pm 31.8 33.2 16.5 39 9.8 N 4 11 2 6 1010.1 1007.6 0.0
18/03:00pm 31.8 33.3 17.7 43 9.2 NW 6 15 3 8 1010.3 1007.8 0.0
18/02:30pm 31.2 32.8 18.2 46 8.5 NE 7 13 4 7 1010.6 1008.1 0.0
18/02:00pm 31.6 33.6 19.2 47 8.2 NNE 7 13 4 7 1010.9 1008.4 0.0
18/01:30pm 31.5 33.1 19.2 48 8.2 NE 9 17 5 9 1011.5 1009.0 0.0
18/01:00pm 31.2 33.7 20.2 52 7.4 N 7 13 4 7 1012.1 1009.6 0.0
18/12:30pm 29.3 30.4 18.1 51 7.3 NNE 9 17 5 9 1012.5 1010.0 0.0
18/12:00pm 28.9 30.7 19.5 57 6.2 ENE 9 19 5 10 1012.8 1010.3 0.0
18/11:30am 30.1 32.5 20.9 57 6.2 NNE 9 20 5 11 1013.3 1010.9 0.0
18/11:00am 28.3 31.2 19.8 60 5.6 NNW 4 15 2 8 1013.7 1011.3 0.0
18/10:30am 27.9 29.9 19.9 61 5.3 ESE 9 17 5 9 1014.1 1011.6 0.0
18/10:00am 27.9 30.1 21.2 67 4.5 ENE 11 17 6 9 1014.2 1011.7 0.0
18/09:30am 26.4 28.6 20.5 70 3.9 NE 9 15 5 8 1014.3 1011.8 0.0
18/09:00am 25.3 27.7 20.8 76 3.0 ESE 9 15 5 8 1014.3 1011.8 0.4
18/08:30am 24.8 27.5 21.3 81 2.3 ESE 9 13 5 7 1014.3 1011.8 0.4
18/08:29am 24.9 27.9 22.0 84 2.0 ESE 9 13 5 7 1014.3 1011.8 0.4
18/08:01am 23.3 26.1 20.8 86 1.7 ESE 7 11 4 6 1013.8 1011.4 0.4
18/08:00am 23.3 26.2 21.0 87 1.5 ESE 7 11 4 6 1013.8 1011.4 0.4
18/07:52am 23.2 26.6 20.9 87 1.5 E 4 9 2 5 1013.8 1011.4 0.4
18/07:30am 22.9 26.5 21.2 90 1.1 E 4 9 2 5 1013.7 1011.3 0.4
18/07:00am 22.1 25.1 20.9 93 0.8 ENE 6 9 3 5 1013.2 1010.8 0.4
18/06:30am 21.5 25.6 20.8 96 0.5 CALM 0 6 0 3 1013.1 1010.6 0.4
18/06:06am 21.1 25.0 20.4 96 0.5 CALM 0 0 0 0 1012.9 1010.4 0.4
18/06:00am 20.9 24.7 20.2 96 0.5 CALM 0 0 0 0 1012.8 1010.3 0.4
18/05:36am 20.9 23.3 20.1 95 0.5 SSE 7 9 4 5 1012.6 1010.1 0.4
18/05:30am 21.0 23.6 20.0 94 0.7 SE 6 9 3 5 1012.7 1010.2 0.4
18/05:00am 21.7 25.5 20.9 95 0.5 SW 2 6 1 3 1012.7 1010.2 0.4
18/04:34am 21.5 23.6 21.0 97 0.3 WSW 11 17 6 9 1012.7 1010.2 0.4
18/04:30am 21.5 23.1 20.8 96 0.5 WSW 13 17 7 9 1012.7 1010.2 0.4
18/04:00am 21.3 24.2 20.6 96 0.5 SE 6 11 3 6 1012.0 1009.5 0.4
18/03:34am 21.5 24.4 20.7 95 0.5 ESE 6 13 3 7 1012.3 1009.8 0.4
18/03:30am 21.5 24.5 20.8 96 0.5 ESE 6 13 3 7 1012.2 1009.7 0.4
18/03:00am 21.7 24.5 20.9 95 0.5 E 7 11 4 6 1013.0 1010.5 0.4
18/02:30am 21.7 24.6 21.0 96 0.5 ESE 7 11 4 6 1013.8 1011.4 0.4
18/02:00am 21.5 24.1 21.2 98 0.2 SSE 9 13 5 7 1014.7 1012.2 0.4
18/01:36am 21.4 23.5 20.9 97 0.3 SE 11 15 6 8 1014.6 1012.1 0.4
18/01:30am 21.5 23.3 21.2 98 0.2 SSE 13 17 7 9 1014.9 1012.4 0.4
18/01:00am 21.3 23.8 20.3 94 0.7 SE 7 11 4 6 1014.6 1012.1 0.4
18/12:30am 21.4 23.8 19.7 90 1.1 SE 6 9 3 5 1014.6 1012.1 0.4
18/12:00am 21.9 24.1 19.6 87 1.5 SSE 7 11 4 6 1014.9 1012.4 0.4
 
Date/Time
EST
Temp
°C
App
Temp
°C
Dew
Point
°C
Rel
Hum
%
Delta-T
°C
Wind Press
QNH
hPa
Press
MSL
hPa
Rain since
9am
mm
Dir  Spd
km/h
Gust
km/h
Spd
kts
Gust
kts
17/11:30pm 22.3 24.8 19.8 86 1.6 SSE 6 7 3 4 1015.2 1012.7 0.4
17/11:00pm 22.8 25.4 20.0 84 1.8 ESE 6 11 3 6 1015.4 1013.0 0.4
17/10:30pm 22.9 24.9 19.9 83 2.0 ESE 9 13 5 7 1015.5 1013.1 0.4
17/10:00pm 23.3 23.7 19.9 81 2.2 E 17 24 9 13 1015.3 1012.9 0.4
17/09:30pm 23.7 25.0 20.2 81 2.3 E 13 20 7 11 1015.4 1013.0 0.4
17/09:00pm 24.3 25.5 20.6 80 2.5 ESE 15 22 8 12 1015.5 1013.1 0.4
17/08:30pm 25.1 26.5 21.0 78 2.7 E 15 24 8 13 1015.2 1012.7 0.4
17/08:00pm 25.6 28.5 21.7 79 2.6 ENE 9 22 5 12 1014.7 1012.2 0.4
17/07:30pm 25.5 28.8 21.8 80 2.5 ENE 7 15 4 8 1014.2 1011.7 0.4
17/07:00pm 25.6 28.5 21.7 79 2.6 N 9 13 5 7 1013.5 1011.1 0.0
17/06:30pm 27.8 29.3 20.6 65 4.8 E 13 17 7 9 1012.7 1010.2 0.0
17/06:00pm 28.5 29.6 20.5 62 5.4 ESE 15 24 8 13 1012.0 1009.5 0.0
17/05:30pm 29.3 30.0 20.5 59 5.9 ESE 17 26 9 14 1011.6 1009.1 0.0
17/05:00pm 30.4 30.3 20.0 53 7.0 ESE 20 30 11 16 1011.5 1009.0 0.0
17/04:30pm 30.9 31.1 19.3 50 7.7 E 17 22 9 12 1011.3 1008.9 0.0
17/04:00pm 31.5 32.4 20.1 50 7.7 ESE 15 22 8 12 1011.6 1009.1 0.0
17/03:30pm 31.6 32.7 18.9 47 8.4 ENE 11 19 6 10 1011.9 1009.4 0.0
17/03:00pm 32.0 34.1 18.9 45 8.7 ENE 6 11 3 6 1012.1 1009.6 0.0
17/02:30pm 31.1 31.9 18.1 46 8.5 ESE 11 19 6 10 1012.5 1010.0 0.0
17/02:00pm 31.7 33.8 20.9 52 7.3 NNE 11 19 6 10 1012.7 1010.2 0.0
17/01:30pm 31.2 33.2 20.8 54 7.0 NNE 11 17 6 9 1013.1 1010.6 0.0
17/01:00pm 30.8 32.3 19.8 52 7.3 NE 11 17 6 9 1013.7 1011.3 0.0
17/12:30pm 30.2 32.4 20.4 55 6.6 NNE 9 17 5 9 1014.0 1011.5 0.0
17/12:00pm 30.4 33.3 21.8 60 5.9 ENE 9 15 5 8 1014.3 1011.8 0.0
17/11:30am 29.5 31.8 22.0 64 5.1 NE 13 24 7 13 1014.5 1012.0 0.0
17/11:00am 29.0 31.6 22.0 66 4.8 E 11 17 6 9 1014.7 1012.2 0.0
17/10:30am 28.0 29.8 19.5 60 5.6 ENE 9 17 5 9 1015.1 1012.6 0.0
17/10:00am 27.4 29.2 21.2 69 4.2 E 13 19 7 10 1015.3 1012.9 0.0
17/09:30am 26.3 26.9 20.2 69 4.0 E 17 26 9 14 1015.5 1013.1 0.0
17/09:00am 26.0 27.1 21.2 75 3.2 ESE 17 30 9 16 1015.5 1013.1 0.0
17/08:30am 24.7 25.7 20.2 76 3.0 ESE 15 24 8 13 1015.5 1013.1 0.0
17/08:00am 23.9 25.2 20.8 83 2.1 SE 15 26 8 14 1015.3 1012.9 0.0
17/07:30am 22.8 24.6 20.3 86 1.6 ESE 11 17 6 9 1015.1 1012.6 0.0
17/07:00am 22.0 23.5 20.6 92 0.9 ESE 13 17 7 9 1014.9 1012.4 0.0
17/06:30am 20.9 22.5 20.7 99 0.1 ESE 13 17 7 9 1014.7 1012.2 0.0
17/06:00am 20.2 22.3 20.2 100 0.0 ESE 9 15 5 8 1014.5 1012.0 0.0
17/05:46am 20.0 22.0 20.0 100 0.0 ESE 9 11 5 6 1014.4 1011.9 0.0
17/05:30am 20.0 22.0 20.0 100 0.0 ESE 9 13 5 7 1014.3 1011.8 0.0
17/05:18am 20.0 22.0 20.0 100 0.0 ESE 9 15 5 8 1014.3 1011.8 0.0
17/05:00am 19.8 21.7 19.8 100 0.0 SSE 9 13 5 7 1014.1 1011.6 0.0
17/04:57am 19.6 21.0 19.6 100 0.0 SSE 11 13 6 7 1014.1 1011.6 0.0
17/04:30am 19.0 20.5 18.8 99 0.1 SSE 9 11 5 6 1014.1 1011.6 0.0
17/04:00am 19.0 20.5 18.8 99 0.1 SSE 9 11 5 6 1014.0 1011.5 0.0
17/03:30am 18.7 21.3 18.5 99 0.1 ENE 2 6 1 3 1013.5 1011.1 0.0
17/03:00am 19.3 22.6 19.1 99 0.1 CALM 0 0 0 0 1013.8 1011.4 0.0
17/02:30am 19.3 22.5 18.8 97 0.3 CALM 0 0 0 0 1014.1 1011.6 0.0
17/02:00am 19.7 23.0 19.2 97 0.3 CALM 0 0 0 0 1014.4 1011.9 0.0
17/01:30am 19.8 23.1 19.0 95 0.5 CALM 0 0 0 0 1014.6 1012.1 0.0
17/01:00am 20.4 23.8 19.4 94 0.6 CALM 0 0 0 0 1015.1 1012.6 0.0
17/12:30am 20.5 23.5 19.3 93 0.8 E 2 7 1 4 1015.5 1013.1 0.0
17/12:00am 20.8 23.3 19.1 90 1.1 ESE 4 7 2 4 1015.8 1013.4 0.0
 
Date/Time
EST
Temp
°C
App
Temp
°C
Dew
Point
°C
Rel
Hum
%
Delta-T
°C
Wind Press
QNH
hPa
Press
MSL
hPa
Rain since
9am
mm
Dir  Spd
km/h
Gust
km/h
Spd
kts
Gust
kts
16/11:30pm 21.0 23.1 18.9 88 1.3 E 6 9 3 5 1015.6 1013.2 0.0
16/11:00pm 21.4 23.3 18.6 84 1.8 E 6 9 3 5 1015.5 1013.1 0.0
16/10:30pm 21.7 23.1 18.7 83 1.9 ESE 9 13 5 7 1015.5 1013.1 0.0
16/10:00pm 22.5 22.4 18.7 79 2.4 E 17 28 9 15 1015.2 1012.7 0.0
16/09:30pm 22.8 22.7 17.9 74 3.1 ESE 15 24 8 13 1015.2 1012.7 0.0
16/09:00pm 23.6 22.9 18.7 74 3.2 E 20 28 11 15 1014.7 1012.2 0.0
16/08:30pm 24.6 24.1 19.0 71 3.6 E 20 30 11 16 1014.2 1011.7 0.0
16/08:00pm 25.4 25.3 19.5 70 3.9 E 19 28 10 15 1013.7 1011.3 0.0
16/07:30pm 26.3 27.1 20.6 71 3.8 E 17 24 9 13 1013.2 1010.8 0.0
16/07:00pm 27.4 28.4 20.2 65 4.8 E 15 20 8 11 1013.0 1010.5 0.0
16/06:30pm 28.0 28.0 18.1 55 6.4 ESE 15 20 8 11 1012.5 1010.0 0.0
16/06:00pm 29.4 29.4 18.2 51 7.3 ESE 15 20 8 11 1012.0 1009.5 0.0
16/05:30pm 30.3 30.1 18.4 49 7.8 ESE 17 22 9 12 1011.5 1009.0 0.0
16/05:00pm 30.9 30.8 17.9 45 8.5 ESE 15 24 8 13 1011.2 1008.8 0.0
16/04:30pm 31.8 33.2 18.7 45 8.6 E 9 20 5 11 1011.0 1008.5 0.0
16/04:00pm 31.8 31.6 17.7 43 9.2 SE 15 22 8 12 1011.0 1008.5 0.0
16/03:30pm 32.1 32.7 17.6 42 9.4 ESE 11 24 6 13 1011.1 1008.6 0.0
16/03:00pm 32.2 31.7 16.9 40 9.9 SE 15 24 8 13 1011.1 1008.6 0.0
16/02:30pm 32.2 33.1 18.4 44 9.1 ESE 11 19 6 10 1011.2 1008.8 0.0
16/02:00pm 31.6 32.6 18.6 46 8.6 ESE 11 20 6 11 1011.6 1009.1 0.0
16/01:30pm 31.2 31.6 18.9 48 8.1 ESE 15 20 8 11 1011.8 1009.3 0.0
16/01:00pm 31.1 33.0 19.8 51 7.6 ENE 9 22 5 12 1012.1 1009.6 0.0
16/12:30pm 31.0 33.4 21.5 57 6.5 SSE 11 17 6 9 1012.5 1010.0 0.0
16/12:00pm 30.2 31.6 20.4 55 6.6 ESE 13 20 7 11 1012.7 1010.2 0.0
16/11:30am 29.2 31.5 21.4 63 5.3 E 11 20 6 11 1013.1 1010.6 0.0
16/11:00am 29.0 31.0 20.7 61 5.6 E 11 17 6 9 1013.3 1010.9 0.0
16/10:30am 28.3 30.3 20.8 63 5.0 ESE 11 17 6 9 1013.6 1011.2 0.0
16/10:00am 28.0 29.8 21.1 66 4.7 ESE 13 20 7 11 1013.6 1011.2 0.0
16/09:30am 27.5 29.7 21.1 68 4.3 ESE 11 17 6 9 1013.6 1011.2 0.0
16/09:06am 27.0 29.8 20.8 69 4.2 SE 7 13 4 7 1013.5 1011.1 0.0
16/09:00am 26.9 29.6 21.4 72 3.7 SE 9 15 5 8 1013.5 1011.1 0.0
16/08:51am 26.0 28.7 20.6 72 3.6 E 7 13 4 7 1013.4 1011.0 0.0
16/08:46am 26.6 29.7 21.4 73 3.5 E 7 13 4 7 1013.4 1011.0 0.0
16/08:30am 25.8 28.9 21.5 77 2.9 SE 7 13 4 7 1013.2 1010.8 0.0
16/08:00am 25.0 28.5 21.9 83 2.1 SE 6 9 3 5 1013.2 1010.8 0.0
16/07:30am 23.6 27.3 22.2 92 0.9 E 6 9 3 5 1013.0 1010.5 0.0
16/07:00am 23.0 27.5 22.2 95 0.5 ESE 2 11 1 6 1012.7 1010.2 0.0
16/06:54am 22.9 27.7 22.2 96 0.5 CALM 0 0 0 0 1012.6 1010.1 0.0
16/06:30am 21.4 25.0 21.2 99 0.1 NNE 4 6 2 3 1012.3 1009.8 0.0
16/06:05am 21.2 25.4 21.0 99 0.1 CALM 0 0 0 0 1012.0 1009.5 0.0
16/06:00am 21.0 25.1 20.8 99 0.1 CALM 0 0 0 0 1011.9 1009.4 0.0
16/05:37am 21.0 25.0 20.5 97 0.3 CALM 0 0 0 0 1011.6 1009.1 0.0
16/05:30am 21.3 25.4 20.8 97 0.3 CALM 0 0 0 0 1011.5 1009.0 0.0
16/05:06am 21.5 25.8 21.2 98 0.2 CALM 0 0 0 0 1011.1 1008.6 0.0
16/05:00am 21.6 25.9 21.1 97 0.3 CALM 0 0 0 0 1011.1 1008.6 0.0
16/04:30am 22.1 26.8 21.9 99 0.1 CALM 0 0 0 0 1010.9 1008.4 0.0
16/04:00am 22.0 25.5 21.8 99 0.1 ESE 6 6 3 3 1010.6 1008.1 0.0
16/03:30am 22.2 26.5 21.9 98 0.2 E 2 9 1 5 1010.4 1007.9 0.0
16/03:00am 22.9 27.6 21.9 94 0.7 CALM 0 0 0 0 1010.3 1007.8 0.0
16/02:30am 23.1 27.1 22.1 94 0.7 ENE 4 9 2 5 1010.3 1007.8 0.0

Other formats

Comma delimited format used in spreadsheet applications
http://www.bom.gov.au/fwo/IDQ60801/IDQ60801.94549.axf

JavaScript Object Notation format (JSON) in row-major order
http://www.bom.gov.au/fwo/IDQ60801/IDQ60801.94549.json

Data quality

Most of these data are generated automatically and are frequently updated. Quality checks on data are not normally performed. It is possible for incorrect values to appear. Refer to information at About Latest Weather Observations and please check the disclaimer before using these data.